createdAt,value
2018-02-22T00:02:20.242Z,26.83
2018-02-22T00:04:47.069Z,28.70
2018-02-22T00:07:13.784Z,28.35
2018-02-22T00:09:40.489Z,27.15
2018-02-22T00:12:07.176Z,27.75
2018-02-22T00:14:33.857Z,27.70
2018-02-22T00:17:00.643Z,27.83
2018-02-22T00:19:27.329Z,29.10
2018-02-22T00:21:54.042Z,28.12
2018-02-22T00:24:20.746Z,27.70
2018-02-22T00:26:47.445Z,27.08
2018-02-22T00:29:14.141Z,25.90
2018-02-22T00:31:41.041Z,30.30
2018-02-22T00:34:07.749Z,27.65
2018-02-22T00:36:34.513Z,27.92
2018-02-22T00:39:01.217Z,27.23
2018-02-22T00:41:27.901Z,27.08
2018-02-22T00:43:54.616Z,26.45
2018-02-22T00:46:21.330Z,26.58
2018-02-22T00:48:48.029Z,27.62
2018-02-22T00:51:14.729Z,25.83
2018-02-22T00:53:41.454Z,26.73
2018-02-22T00:56:08.140Z,27.52
2018-02-22T00:58:34.833Z,27.13
2018-02-22T01:01:01.540Z,26.07
2018-02-22T01:03:28.261Z,27.65
2018-02-22T01:05:54.980Z,25.77
2018-02-22T01:08:21.667Z,27.45
2018-02-22T01:10:48.373Z,27.00
2018-02-22T01:13:15.137Z,26.58
2018-02-22T01:15:41.834Z,28.48
2018-02-22T01:18:08.734Z,27.73
2018-02-22T01:20:35.437Z,28.85
2018-02-22T01:23:02.154Z,25.83
2018-02-22T01:25:28.845Z,26.80
2018-02-22T01:27:55.746Z,26.20
2018-02-22T01:30:22.433Z,25.88
2018-02-22T01:32:49.313Z,26.95
2018-02-22T01:35:16.022Z,27.25
2018-02-22T01:37:42.757Z,27.45
2018-02-22T01:40:09.644Z,27.05
2018-02-22T01:42:36.328Z,27.60
2018-02-22T01:45:03.023Z,28.90
2018-02-22T01:47:29.732Z,28.35
2018-02-22T01:49:56.433Z,28.83
2018-02-22T01:52:23.212Z,25.58
2018-02-22T01:54:49.912Z,25.30
2018-02-22T01:57:16.603Z,27.37
2018-02-22T01:59:43.397Z,26.05
2018-02-22T02:02:10.097Z,25.98
2018-02-22T02:04:36.794Z,27.65
2018-02-22T02:07:03.482Z,27.33
2018-02-22T02:09:30.189Z,26.55
2018-02-22T02:11:56.949Z,27.17
2018-02-22T02:14:23.757Z,28.85
2018-02-22T02:16:50.649Z,27.08
2018-02-22T02:19:17.329Z,26.60
2018-02-22T02:21:44.044Z,28.23
2018-02-22T02:24:10.729Z,25.62
2018-02-22T02:26:37.443Z,28.77
2018-02-22T02:29:04.136Z,26.20
2018-02-22T02:31:30.842Z,25.83
2018-02-22T02:33:57.530Z,28.48
2018-02-22T02:36:24.236Z,26.30
2018-02-22T02:38:50.953Z,26.00
2018-02-22T02:41:17.678Z,26.02
2018-02-22T02:43:44.386Z,25.60
2018-02-22T02:46:11.078Z,26.23
2018-02-22T02:48:37.804Z,24.80
2018-02-22T02:51:04.544Z,25.02
2018-02-22T02:53:31.274Z,24.80
2018-02-22T02:55:57.994Z,27.17
2018-02-22T02:58:24.681Z,27.30
2018-02-22T03:00:51.445Z,25.98
2018-02-22T03:03:18.134Z,24.92
2018-02-22T03:05:44.841Z,25.55
2018-02-22T03:08:11.541Z,25.75
2018-02-22T03:10:38.253Z,24.70
2018-02-22T03:13:04.950Z,25.75
2018-02-22T03:15:31.637Z,24.52
2018-02-22T03:17:58.349Z,26.50
2018-02-22T03:20:25.177Z,27.33
2018-02-22T03:22:51.932Z,23.77
2018-02-22T03:25:18.648Z,26.55
2018-02-22T03:27:45.348Z,25.75
2018-02-22T03:30:12.042Z,26.67
2018-02-22T03:32:38.749Z,23.33
2018-02-22T03:35:05.463Z,27.08
2018-02-22T03:37:32.210Z,25.17
2018-02-22T03:39:58.900Z,26.27
2018-02-22T03:42:25.633Z,25.20
2018-02-22T03:44:52.337Z,22.62
2018-02-22T03:47:19.113Z,24.02
2018-02-22T03:49:45.809Z,22.52
2018-02-22T03:52:12.516Z,26.27
2018-02-22T03:54:39.209Z,25.80
2018-02-22T03:57:06.014Z,26.52
2018-02-22T03:59:32.697Z,23.48
2018-02-22T04:01:59.417Z,24.67
2018-02-22T04:04:26.113Z,29.08
2018-02-22T04:06:52.881Z,24.60
2018-02-22T04:09:19.580Z,24.50
2018-02-22T04:11:46.297Z,24.67
2018-02-22T04:14:13.045Z,23.05
2018-02-22T04:16:39.770Z,24.95
2018-02-22T04:19:06.577Z,24.87
2018-02-22T04:21:33.273Z,26.25
2018-02-22T04:23:59.961Z,24.48
2018-02-22T04:26:26.671Z,24.75
2018-02-22T04:28:53.373Z,25.88
2018-02-22T04:31:20.053Z,23.85
2018-02-22T04:33:46.769Z,23.25
2018-02-22T04:36:13.452Z,23.60
2018-02-22T04:38:40.169Z,23.55
2018-02-22T04:41:06.845Z,22.00
2018-02-22T04:43:33.661Z,23.02
2018-02-22T04:46:00.398Z,23.73
2018-02-22T04:48:27.216Z,24.35
2018-02-22T04:50:53.901Z,23.05
2018-02-22T04:53:20.626Z,23.58
2018-02-22T04:55:47.321Z,24.12
2018-02-22T04:58:14.012Z,22.67
2018-02-22T05:00:40.723Z,25.15
2018-02-22T05:03:07.593Z,23.55
2018-02-22T05:05:34.277Z,21.65
2018-02-22T05:08:00.959Z,22.45
2018-02-22T05:10:27.666Z,23.38
2018-02-22T05:12:54.356Z,24.85
2018-02-22T05:15:21.047Z,25.58
2018-02-22T05:17:47.752Z,22.55
2018-02-22T05:20:14.437Z,22.75
2018-02-22T05:22:41.144Z,21.45
2018-02-22T05:25:07.849Z,22.35
2018-02-22T05:27:34.558Z,23.23
2018-02-22T05:30:01.302Z,24.40
2018-02-22T05:32:27.993Z,23.25
2018-02-22T05:34:54.741Z,23.30
2018-02-22T05:37:21.425Z,26.17
2018-02-22T05:39:48.129Z,26.48
2018-02-22T05:42:14.829Z,22.83
2018-02-22T05:44:41.541Z,23.17
2018-02-22T05:47:08.233Z,24.58
2018-02-22T05:49:34.942Z,23.30
2018-02-22T05:52:01.637Z,23.10
2018-02-22T05:54:28.457Z,23.38
2018-02-22T05:56:55.158Z,22.60
2018-02-22T05:59:21.904Z,22.30
2018-02-22T06:01:48.650Z,23.33
2018-02-22T06:04:15.334Z,21.48
2018-02-22T06:06:42.174Z,24.17
2018-02-22T06:09:08.866Z,22.60
2018-02-22T06:11:35.576Z,21.90
2018-02-22T06:14:02.365Z,24.50
2018-02-22T06:16:29.080Z,23.15
2018-02-22T06:18:55.777Z,22.42
2018-02-22T06:21:22.493Z,23.38
2018-02-22T06:23:49.183Z,24.25
2018-02-22T06:26:15.970Z,22.73
2018-02-22T06:28:42.669Z,23.08
2018-02-22T06:31:09.394Z,21.83
2018-02-22T06:33:36.109Z,22.00
2018-02-22T06:36:02.793Z,22.25
2018-02-22T06:38:29.503Z,23.70
2018-02-22T06:40:56.249Z,21.00
2018-02-22T06:43:22.957Z,21.05
2018-02-22T06:45:49.670Z,20.85
2018-02-22T06:48:16.357Z,21.62
2018-02-22T06:50:43.070Z,21.33
2018-02-22T06:53:09.833Z,22.30
2018-02-22T06:55:36.642Z,22.50
2018-02-22T06:58:03.397Z,21.65
2018-02-22T07:00:30.553Z,21.45
2018-02-22T07:02:57.269Z,24.65
2018-02-22T07:05:24.113Z,21.45
2018-02-22T07:07:50.830Z,19.10
2018-02-22T07:10:17.738Z,21.62
2018-02-22T07:12:44.482Z,20.77
2018-02-22T07:15:11.186Z,21.30
2018-02-22T07:17:37.885Z,19.15
2018-02-22T07:20:05.430Z,21.67
2018-02-22T07:22:32.326Z,20.30
2018-02-22T07:24:59.011Z,20.23
2018-02-22T07:27:25.750Z,18.65
2018-02-22T07:29:52.461Z,20.10
2018-02-22T07:32:19.170Z,19.60
2018-02-22T07:34:45.868Z,21.65
2018-02-22T07:37:12.589Z,21.73
2018-02-22T07:39:39.281Z,21.15
2018-02-22T07:42:06.227Z,21.83
2018-02-22T07:44:32.924Z,20.10
2018-02-22T07:46:59.644Z,20.20
2018-02-22T07:49:26.334Z,20.23
2018-02-22T07:51:53.017Z,23.50
2018-02-22T07:54:19.833Z,18.70
2018-02-22T07:56:46.536Z,21.57
2018-02-22T07:59:13.245Z,19.70
2018-02-22T08:01:39.948Z,20.27
2018-02-22T08:04:06.688Z,22.10
2018-02-22T08:06:33.549Z,21.73
2018-02-22T08:09:00.253Z,20.77
2018-02-22T08:11:27.025Z,19.60
2018-02-22T08:13:53.729Z,20.63
2018-02-22T08:16:20.433Z,20.50
2018-02-22T08:18:47.145Z,20.60
2018-02-22T08:21:13.842Z,20.27
2018-02-22T08:23:40.558Z,19.80
2018-02-22T08:26:07.317Z,18.73
2018-02-22T08:28:33.983Z,20.63
2018-02-22T08:31:00.873Z,19.23
2018-02-22T08:33:27.569Z,18.90
2018-02-22T08:35:54.433Z,21.17
2018-02-22T08:38:21.137Z,18.20
2018-02-22T08:40:47.813Z,18.67
2018-02-22T08:43:14.520Z,19.97
2018-02-22T08:45:41.209Z,18.30
2018-02-22T08:48:07.942Z,18.70
2018-02-22T08:50:34.692Z,18.83
2018-02-22T08:53:01.434Z,19.27
2018-02-22T08:55:28.317Z,17.53
2018-02-22T08:57:55.009Z,17.73
2018-02-22T09:00:21.714Z,18.87
2018-02-22T09:02:48.398Z,17.90
2018-02-22T09:05:15.102Z,19.07
2018-02-22T09:07:41.790Z,18.50
2018-02-22T09:10:08.482Z,17.83
2018-02-22T09:12:35.161Z,18.60
2018-02-22T09:15:01.870Z,19.30
2018-02-22T09:17:28.561Z,17.50
2018-02-22T09:19:55.249Z,18.60
2018-02-22T09:22:21.957Z,18.50
2018-02-22T09:24:48.668Z,18.30
2018-02-22T09:27:15.383Z,17.93
2018-02-22T09:29:42.066Z,18.87
2018-02-22T09:32:08.767Z,18.00
2018-02-22T09:34:35.656Z,18.63
2018-02-22T09:37:02.565Z,17.43
2018-02-22T09:39:29.265Z,18.47
2018-02-22T09:41:56.229Z,18.47
2018-02-22T09:44:23.069Z,19.30
2018-02-22T09:46:49.795Z,17.70
2018-02-22T09:49:16.501Z,17.60
2018-02-22T09:51:43.189Z,18.30
2018-02-22T09:54:10.057Z,17.13
2018-02-22T09:56:36.758Z,18.00
2018-02-22T09:59:03.466Z,17.00
2018-02-22T10:01:30.186Z,16.43
2018-02-22T10:03:56.893Z,17.20
2018-02-22T10:06:23.950Z,16.30
2018-02-22T10:08:50.633Z,17.13
2018-02-22T10:11:17.357Z,15.77
2018-02-22T10:13:44.044Z,17.13
2018-02-22T10:16:10.873Z,16.97
2018-02-22T10:18:37.544Z,17.93
2018-02-22T10:21:04.409Z,15.87
2018-02-22T10:23:31.108Z,17.47
2018-02-22T10:25:57.790Z,14.53
2018-02-22T10:28:24.486Z,15.90
2018-02-22T10:30:51.256Z,15.67
2018-02-22T10:33:18.058Z,15.77
2018-02-22T10:35:44.737Z,14.60
2018-02-22T10:38:11.444Z,14.10
2018-02-22T10:40:38.159Z,16.10
2018-02-22T10:43:04.905Z,13.60
2018-02-22T10:45:31.593Z,14.67
2018-02-22T10:47:58.341Z,14.27
2018-02-22T10:50:25.025Z,14.73
2018-02-22T10:52:51.856Z,14.17
2018-02-22T10:55:18.560Z,13.67
2018-02-22T10:57:45.328Z,14.17
2018-02-22T11:00:12.022Z,15.20
2018-02-22T11:02:44.357Z,14.73
2018-02-22T11:05:11.121Z,15.87
2018-02-22T11:07:37.806Z,15.13
2018-02-22T11:10:04.546Z,14.03
2018-02-22T11:12:31.208Z,14.00
2018-02-22T11:14:57.909Z,12.60
2018-02-22T11:17:24.671Z,14.03
2018-02-22T11:19:51.387Z,13.63
2018-02-22T11:22:18.072Z,13.97
2018-02-22T11:24:44.833Z,12.57
2018-02-22T11:27:11.554Z,13.20
2018-02-22T11:29:38.250Z,14.93
2018-02-22T11:32:04.937Z,15.03
2018-02-22T11:34:31.641Z,12.50
2018-02-22T11:36:58.354Z,13.97
2018-02-22T11:39:25.167Z,12.67
2018-02-22T11:41:51.869Z,13.10
2018-02-22T11:44:18.569Z,12.63
2018-02-22T11:46:45.301Z,12.77
2018-02-22T11:49:12.006Z,11.93
2018-02-22T11:51:38.985Z,11.77
2018-02-22T11:54:05.656Z,12.00
2018-02-22T11:56:32.360Z,11.93
2018-02-22T11:58:59.047Z,12.50
2018-02-22T12:01:25.759Z,12.10
2018-02-22T12:03:52.440Z,12.73
2018-02-22T12:06:19.210Z,12.33
2018-02-22T12:08:45.888Z,11.23
2018-02-22T12:11:12.625Z,12.67
2018-02-22T12:13:39.473Z,11.53
2018-02-22T12:16:06.194Z,10.10
2018-02-22T12:18:32.877Z,9.80
2018-02-22T12:20:59.586Z,10.10
2018-02-22T12:23:26.270Z,8.50
2018-02-22T12:25:53.058Z,9.23
2018-02-22T12:28:19.749Z,9.80
2018-02-22T12:30:46.457Z,9.17
2018-02-22T12:33:13.139Z,9.10
2018-02-22T12:35:39.817Z,10.50
2018-02-22T12:38:06.515Z,10.53
2018-02-22T12:40:33.350Z,9.90
2018-02-22T12:43:00.074Z,10.23
2018-02-22T12:45:26.789Z,9.30
2018-02-22T12:47:53.501Z,8.90
2018-02-22T12:50:20.193Z,8.93
2018-02-22T12:52:46.873Z,7.70
2018-02-22T12:55:13.706Z,7.60
2018-02-22T12:57:41.144Z,7.53
2018-02-22T13:00:07.850Z,7.73
2018-02-22T13:02:34.584Z,7.47
2018-02-22T13:05:01.382Z,7.87
2018-02-22T13:07:28.052Z,7.60
2018-02-22T13:09:54.833Z,6.77
2018-02-22T13:12:21.505Z,6.60
2018-02-22T13:14:48.222Z,7.20
2018-02-22T13:17:16.033Z,7.63
2018-02-22T13:19:42.719Z,6.70
2018-02-22T13:22:09.410Z,7.70
2018-02-22T13:24:36.552Z,7.07
2018-02-22T13:27:03.289Z,6.47
2018-02-22T13:29:29.984Z,7.30
2018-02-22T13:31:56.729Z,6.60
2018-02-22T13:34:31.566Z,6.80
2018-02-22T13:36:58.246Z,7.17
2018-02-22T13:39:24.957Z,8.63
2018-02-22T13:41:51.637Z,6.47
2018-02-22T13:44:24.405Z,7.50
2018-02-22T13:46:51.100Z,7.70
2018-02-22T13:49:23.722Z,7.53
2018-02-22T13:51:50.784Z,7.00
2018-02-22T13:54:17.467Z,8.03
2018-02-22T13:56:50.033Z,7.40
2018-02-22T13:59:16.734Z,6.80
2018-02-22T14:01:49.313Z,8.27
2018-02-22T14:04:16.003Z,6.33
2018-02-22T14:06:42.699Z,8.07
2018-02-22T14:09:09.428Z,7.50
2018-02-22T14:11:36.116Z,7.43
2018-02-22T14:14:02.817Z,8.07
2018-02-22T14:16:29.494Z,7.50
2018-02-22T14:18:56.286Z,8.47
2018-02-22T14:21:22.986Z,7.07
2018-02-22T14:23:49.697Z,7.70
2018-02-22T14:26:16.377Z,7.53
2018-02-22T14:28:43.078Z,8.37
2018-02-22T14:31:09.820Z,8.90
2018-02-22T14:33:36.589Z,8.50
2018-02-22T14:36:03.288Z,8.13
2018-02-22T14:38:29.995Z,8.83
2018-02-22T14:40:56.727Z,9.53
2018-02-22T14:43:23.358Z,8.53
2018-02-22T14:45:50.069Z,7.60
2018-02-22T14:48:16.753Z,8.57
2018-02-22T14:50:43.529Z,8.50
2018-02-22T14:53:10.205Z,8.03
2018-02-22T14:55:37.029Z,8.27
2018-02-22T14:58:03.835Z,8.43
2018-02-22T15:00:30.556Z,8.73
2018-02-22T15:02:57.239Z,9.00
2018-02-22T15:05:23.926Z,8.70
2018-02-22T15:07:50.649Z,9.07
2018-02-22T15:10:17.354Z,9.47
2018-02-22T15:12:44.056Z,9.10
2018-02-22T15:15:10.734Z,9.27
2018-02-22T15:17:37.457Z,10.43
2018-02-22T15:20:04.195Z,11.67
2018-02-22T15:22:30.949Z,8.83
2018-02-22T15:24:57.712Z,9.00
2018-02-22T15:27:24.406Z,9.10
2018-02-22T15:29:51.157Z,9.00
2018-02-22T15:32:17.838Z,8.53
2018-02-22T15:34:44.558Z,10.23
2018-02-22T15:37:11.262Z,10.50
2018-02-22T15:39:38.030Z,9.73
2018-02-22T15:42:04.711Z,9.70
2018-02-22T15:44:31.447Z,10.30
2018-02-22T15:46:58.112Z,9.37
2018-02-22T15:49:24.837Z,10.10
2018-02-22T15:51:51.618Z,10.17
2018-02-22T15:54:18.309Z,9.53
2018-02-22T15:56:45.004Z,10.37
2018-02-22T15:59:11.890Z,10.43
2018-02-22T16:01:38.578Z,8.53
2018-02-22T16:04:05.265Z,8.40
2018-02-22T16:06:31.981Z,8.40
2018-02-22T16:08:58.698Z,10.10
2018-02-22T16:11:25.400Z,9.87
2018-02-22T16:13:52.096Z,11.83
2018-02-22T16:16:18.800Z,12.17
2018-02-22T16:18:45.522Z,12.53
2018-02-22T16:21:12.295Z,9.90
2018-02-22T16:23:39.026Z,11.10
2018-02-22T16:26:05.970Z,9.73
2018-02-22T16:28:32.830Z,10.83
2018-02-22T16:30:59.554Z,10.90
2018-02-22T16:33:26.466Z,11.00
2018-02-22T16:35:53.194Z,12.27
2018-02-22T16:38:19.883Z,13.40
2018-02-22T16:40:46.585Z,12.93
2018-02-22T16:43:13.311Z,12.27
2018-02-22T16:45:40.057Z,13.90
2018-02-22T16:48:06.750Z,15.60
2018-02-22T16:50:33.463Z,16.00
2018-02-22T16:53:00.174Z,14.50
2018-02-22T16:55:26.857Z,13.77
2018-02-22T16:57:53.538Z,14.17
2018-02-22T17:00:20.263Z,12.70
2018-02-22T17:02:46.953Z,15.97
2018-02-22T17:05:13.701Z,14.83
2018-02-22T17:07:40.439Z,12.10
2018-02-22T17:10:07.210Z,12.07
2018-02-22T17:12:33.951Z,13.73
2018-02-22T17:15:00.696Z,12.93
2018-02-22T17:17:33.309Z,14.47
2018-02-22T17:20:00.186Z,13.50
2018-02-22T17:22:26.868Z,13.00
2018-02-22T17:24:53.589Z,13.60
2018-02-22T17:27:25.997Z,12.93
2018-02-22T17:29:58.396Z,15.33
2018-02-22T17:32:24.721Z,14.57
2018-02-22T17:34:51.439Z,17.20
2018-02-22T17:37:28.977Z,14.77
2018-02-22T17:40:01.381Z,16.00
2018-02-22T17:42:38.987Z,16.63
2018-02-22T17:45:05.663Z,17.07
2018-02-22T17:47:32.363Z,16.70
2018-02-22T17:49:59.127Z,18.10
2018-02-22T17:52:25.838Z,15.30
2018-02-22T17:54:52.599Z,16.17
2018-02-22T17:57:19.280Z,17.33
2018-02-22T17:59:46.081Z,15.30
2018-02-22T18:02:12.807Z,15.90
2018-02-22T18:04:39.798Z,16.10
2018-02-22T18:07:06.476Z,16.70
2018-02-22T18:09:33.258Z,15.33
2018-02-22T18:11:59.954Z,16.25
2018-02-22T18:14:26.696Z,14.37
2018-02-22T18:16:53.405Z,16.90
2018-02-22T18:19:20.129Z,15.83
2018-02-22T18:21:46.852Z,15.70
2018-02-22T18:24:13.594Z,17.17
2018-02-22T18:26:40.309Z,14.75
2018-02-22T18:29:07.063Z,19.07
2018-02-22T18:31:33.858Z,15.37
2018-02-22T18:34:00.562Z,15.73
2018-02-22T18:36:27.270Z,15.80
2018-02-22T18:41:53.597Z,16.70
2018-02-22T18:44:25.944Z,15.70
2018-02-22T18:46:52.674Z,15.80
2018-02-22T18:49:19.366Z,16.13
2018-02-22T18:51:46.113Z,18.50
2018-02-22T18:54:12.804Z,15.93
2018-02-22T18:56:39.520Z,15.70
2018-02-22T18:59:06.222Z,16.37
2018-02-22T19:01:32.950Z,16.70
2018-02-22T19:03:59.739Z,16.00
2018-02-22T19:06:26.437Z,16.93
2018-02-22T19:08:53.298Z,16.65
2018-02-22T19:11:20.146Z,17.17
2018-02-22T19:13:46.858Z,16.90
2018-02-22T19:16:13.602Z,16.08
2018-02-22T19:18:40.316Z,16.20
2018-02-22T19:21:07.026Z,16.05
2018-02-22T19:23:33.770Z,16.73
2018-02-22T19:26:00.578Z,15.17
2018-02-22T19:28:27.277Z,16.60
2018-02-22T19:30:54.030Z,17.45
2018-02-22T19:33:20.715Z,16.37
2018-02-22T19:35:47.418Z,15.25
2018-02-22T19:38:14.325Z,15.50
2018-02-22T19:40:41.078Z,13.55
2018-02-22T19:43:07.798Z,17.25
2018-02-22T19:45:34.550Z,14.07
2018-02-22T19:48:01.238Z,15.15
2018-02-22T19:50:27.967Z,15.80
2018-02-22T19:52:54.758Z,15.02
2018-02-22T19:55:21.515Z,15.33
2018-02-22T19:57:48.210Z,13.75
2018-02-22T20:00:14.972Z,17.67
2018-02-22T20:02:41.694Z,14.82
2018-02-22T20:05:08.430Z,15.95
2018-02-22T20:07:35.142Z,14.50
2018-02-22T20:10:01.866Z,15.63
2018-02-22T20:12:28.683Z,13.15
2018-02-22T20:14:55.368Z,12.13
2018-02-22T20:17:22.067Z,15.13
2018-02-22T20:19:48.862Z,13.68
2018-02-22T20:24:48.909Z,14.55
2018-02-22T20:27:15.621Z,14.63
2018-02-22T20:29:42.329Z,14.90
2018-02-22T20:32:09.053Z,13.50
2018-02-22T20:34:35.784Z,13.77
2018-02-22T20:37:02.493Z,14.35
2018-02-22T20:39:29.218Z,13.73
2018-02-22T20:41:56.049Z,13.00
2018-02-22T20:44:22.750Z,14.75
2018-02-22T20:46:49.519Z,13.02
2018-02-22T20:49:16.270Z,12.45
2018-02-22T20:51:42.990Z,11.93
2018-02-22T20:54:09.711Z,12.43
2018-02-22T20:56:36.427Z,11.75
2018-02-22T20:59:03.153Z,12.95
2018-02-22T21:01:29.885Z,11.65
2018-02-22T21:03:56.674Z,11.70
2018-02-22T21:06:23.382Z,12.00
2018-02-22T21:08:50.181Z,14.25
2018-02-22T21:11:16.896Z,12.20
2018-02-22T21:13:43.626Z,13.10
2018-02-22T21:16:10.355Z,12.90
2018-02-22T21:18:37.134Z,13.07
2018-02-22T21:21:03.845Z,13.45
2018-02-22T21:23:30.584Z,14.45
2018-02-22T21:25:57.320Z,13.07
2018-02-22T21:28:24.043Z,13.75
2018-02-22T21:30:50.900Z,14.98
2018-02-22T21:33:17.630Z,15.65
2018-02-22T21:35:44.348Z,14.45
2018-02-22T21:38:11.064Z,15.10
2018-02-22T21:40:37.771Z,14.00
2018-02-22T21:43:04.488Z,14.15
2018-02-22T21:45:31.194Z,18.55
2018-02-22T21:47:57.989Z,14.48
2018-02-22T21:50:24.656Z,13.40
2018-02-22T21:52:51.391Z,15.05
2018-02-22T21:55:18.119Z,15.13
2018-02-22T21:57:44.850Z,14.57
2018-02-22T22:00:11.570Z,14.13
2018-02-22T22:02:38.291Z,15.00
2018-02-22T22:05:04.978Z,15.93
2018-02-22T22:07:31.699Z,14.95
2018-02-22T22:09:58.442Z,14.45
2018-02-22T22:12:25.160Z,14.43
2018-02-22T22:14:51.885Z,15.60
2018-02-22T22:17:18.678Z,15.48
2018-02-22T22:19:45.355Z,16.35
2018-02-22T22:22:12.047Z,15.60
2018-02-22T22:24:38.801Z,15.50
2018-02-22T22:27:05.963Z,16.15
2018-02-22T22:29:32.727Z,16.15
2018-02-22T22:31:59.443Z,14.70
2018-02-22T22:34:26.138Z,17.35
2018-02-22T22:36:52.868Z,15.90
2018-02-22T22:39:19.562Z,14.68
2018-02-22T22:41:46.311Z,16.50
2018-02-22T22:44:13.075Z,16.60
2018-02-22T22:46:39.761Z,16.55
2018-02-22T22:49:06.473Z,18.10
2018-02-22T22:51:33.167Z,15.52
2018-02-22T22:53:59.889Z,15.80
2018-02-22T22:56:26.605Z,20.25
2018-02-22T22:58:53.409Z,19.52
2018-02-22T23:01:20.111Z,17.02
2018-02-22T23:03:46.847Z,17.15
2018-02-22T23:06:13.707Z,16.80
2018-02-22T23:08:40.534Z,17.95
2018-02-22T23:11:07.238Z,17.87
2018-02-22T23:13:34.005Z,16.92
2018-02-22T23:16:00.816Z,15.68
2018-02-22T23:18:27.531Z,17.83
2018-02-22T23:20:54.290Z,17.67
2018-02-22T23:23:20.992Z,15.88
2018-02-22T23:25:47.694Z,15.88
2018-02-22T23:28:14.433Z,17.25
2018-02-22T23:30:41.157Z,18.60
2018-02-22T23:33:07.849Z,16.17
2018-02-22T23:35:34.552Z,18.35
2018-02-22T23:38:01.334Z,17.37
2018-02-22T23:40:30.925Z,17.37
2018-02-22T23:42:57.641Z,18.25
2018-02-22T23:45:24.406Z,18.27
2018-02-22T23:47:51.094Z,18.60
2018-02-22T23:50:17.826Z,16.90
2018-02-22T23:52:44.505Z,16.98
2018-02-22T23:55:11.190Z,17.10
2018-02-22T23:57:37.973Z,17.50
